createdAt,value
2022-09-17T00:00:37.878Z,94.97
2022-09-17T00:01:37.906Z,94.82
2022-09-17T00:02:37.932Z,94.82
2022-09-17T00:03:37.857Z,94.97
2022-09-17T00:04:37.845Z,95.13
2022-09-17T00:05:37.844Z,95.03
2022-09-17T00:06:37.828Z,95.13
2022-09-17T00:07:37.925Z,95.44
2022-09-17T00:08:37.813Z,95.95
2022-09-17T00:09:37.806Z,95.34
2022-09-17T00:10:37.801Z,95.64
2022-09-17T00:11:37.792Z,94.82
2022-09-17T00:12:37.811Z,94.62
2022-09-17T00:13:37.778Z,94.73
2022-09-17T00:14:37.772Z,95.03
2022-09-17T00:15:37.766Z,94.77
2022-09-17T00:16:37.798Z,94.93
2022-09-17T00:17:37.774Z,94.82
2022-09-17T00:18:37.746Z,95.85
2022-09-17T00:19:37.736Z,95.54
2022-09-17T00:20:37.733Z,95.34
2022-09-17T00:21:37.720Z,94.42
2022-09-17T00:22:37.741Z,94.42
2022-09-17T00:23:37.785Z,94.67
2022-09-17T00:24:37.695Z,94.67
2022-09-17T00:25:37.689Z,94.73
2022-09-17T00:26:37.680Z,94.82
2022-09-17T00:27:37.696Z,94.77
2022-09-17T00:28:37.663Z,94.97
2022-09-17T00:29:37.660Z,94.36
2022-09-17T00:30:37.651Z,94.21
2022-09-17T00:31:37.710Z,94.21
2022-09-17T00:32:37.659Z,94.36
2022-09-17T00:33:37.626Z,94.36
2022-09-17T00:34:37.620Z,93.95
2022-09-17T00:35:37.610Z,94.06
2022-09-17T00:36:37.597Z,93.54
2022-09-17T00:37:37.624Z,94.32
2022-09-17T00:38:37.587Z,92.93
2022-09-17T00:39:37.658Z,93.33
2022-09-17T00:40:37.633Z,92.93
2022-09-17T00:41:37.566Z,94.26
2022-09-17T00:42:37.579Z,94.42
2022-09-17T00:43:37.554Z,94.36
2022-09-17T00:44:37.544Z,94.21
2022-09-17T00:45:39.825Z,93.44
2022-09-17T00:46:37.560Z,94.32
2022-09-17T00:47:37.548Z,94.11
2022-09-17T00:48:37.508Z,93.70
2022-09-17T00:49:37.499Z,94.21
2022-09-17T00:50:37.494Z,93.91
2022-09-17T00:51:37.484Z,93.80
2022-09-17T00:52:37.498Z,94.15
2022-09-17T00:53:37.468Z,94.46
2022-09-17T00:54:37.460Z,95.18
2022-09-17T00:55:37.526Z,94.77
2022-09-17T00:56:37.447Z,94.77
2022-09-17T00:57:37.462Z,94.77
2022-09-17T00:58:41.127Z,94.77
2022-09-17T00:59:38.421Z,95.07
2022-09-17T01:00:37.422Z,94.87
2022-09-17T01:01:37.460Z,94.87
2022-09-17T01:02:37.422Z,95.07
2022-09-17T01:03:37.508Z,95.79
2022-09-17T01:04:37.383Z,96.10
2022-09-17T01:05:37.376Z,96.10
2022-09-17T01:06:37.369Z,96.10
2022-09-17T01:07:37.385Z,96.20
2022-09-17T01:08:37.350Z,97.02
2022-09-17T01:09:37.338Z,97.02
2022-09-17T01:10:37.336Z,96.81
2022-09-17T01:11:37.403Z,97.42
2022-09-17T01:12:37.347Z,96.81
2022-09-17T01:13:37.312Z,96.81
2022-09-17T01:14:37.309Z,96.96
2022-09-17T01:15:37.299Z,96.81
2022-09-17T01:16:37.961Z,96.92
2022-09-17T01:17:37.302Z,97.12
2022-09-17T01:19:09.840Z,96.61
2022-09-17T01:19:37.267Z,97.63
2022-09-17T01:20:37.265Z,97.33
2022-09-17T01:21:37.247Z,97.38
2022-09-17T01:22:37.270Z,97.42
2022-09-17T01:23:37.232Z,97.33
2022-09-17T01:24:37.231Z,97.12
2022-09-17T01:25:37.218Z,97.53
2022-09-17T01:26:37.237Z,97.42
2022-09-17T01:27:37.309Z,97.83
2022-09-17T01:28:37.197Z,97.63
2022-09-17T01:29:37.194Z,97.83
2022-09-17T01:30:37.184Z,97.63
2022-09-17T01:31:37.256Z,98.35
2022-09-17T01:32:37.195Z,98.35
2022-09-17T01:33:37.163Z,98.24
2022-09-17T01:34:37.151Z,98.24
2022-09-17T01:35:37.146Z,98.45
2022-09-17T01:36:37.144Z,98.65
2022-09-17T01:37:37.160Z,98.65
2022-09-17T01:38:37.127Z,98.65
2022-09-17T01:39:37.118Z,98.35
2022-09-17T01:40:37.132Z,98.65
2022-09-17T01:41:37.098Z,98.55
2022-09-17T01:42:37.094Z,98.86
2022-09-17T01:43:37.190Z,99.16
2022-09-17T01:44:37.081Z,98.60
2022-09-17T01:45:37.072Z,98.49
2022-09-17T01:46:37.105Z,98.96
2022-09-17T01:47:37.054Z,98.86
2022-09-17T01:48:37.074Z,99.11
2022-09-17T01:49:37.046Z,99.16
2022-09-17T01:50:37.034Z,99.47
2022-09-17T01:51:37.023Z,99.41
2022-09-17T01:52:37.044Z,99.27
2022-09-17T01:53:37.008Z,99.47
2022-09-17T01:54:40.426Z,99.31
2022-09-17T01:55:38.997Z,98.29
2022-09-17T01:56:36.984Z,98.49
2022-09-17T01:57:37.005Z,98.39
2022-09-17T01:58:36.969Z,98.39
2022-09-17T01:59:37.041Z,98.90
2022-09-17T02:00:36.989Z,99.11
2022-09-17T02:01:37.027Z,98.90
2022-09-17T02:02:36.964Z,99.11
2022-09-17T02:03:36.937Z,99.11
2022-09-17T02:04:36.925Z,98.90
2022-09-17T02:05:36.917Z,99.31
2022-09-17T02:06:36.906Z,99.31
2022-09-17T02:07:36.933Z,99.11
2022-09-17T02:08:36.888Z,99.06
2022-09-17T02:09:36.886Z,99.27
2022-09-17T02:10:36.880Z,98.55
2022-09-17T02:11:36.870Z,98.39
2022-09-17T02:12:36.895Z,98.49
2022-09-17T02:13:36.852Z,98.65
2022-09-17T02:14:36.848Z,98.65
2022-09-17T02:15:36.910Z,98.75
2022-09-17T02:16:36.875Z,98.24
2022-09-17T02:17:36.819Z,98.24
2022-09-17T02:18:36.836Z,98.55
2022-09-17T02:19:36.803Z,98.35
2022-09-17T02:20:36.801Z,98.65
2022-09-17T02:21:36.792Z,98.70
2022-09-17T02:22:36.784Z,98.65
2022-09-17T02:23:36.798Z,98.65
2022-09-17T02:24:36.758Z,98.55
2022-09-17T02:25:36.754Z,98.45
2022-09-17T02:26:36.747Z,98.86
2022-09-17T02:27:36.736Z,97.83
2022-09-17T02:28:36.760Z,98.65
2022-09-17T02:29:36.722Z,98.55
2022-09-17T02:30:36.713Z,98.35
2022-09-17T02:31:36.822Z,99.06
2022-09-17T02:32:36.700Z,99.06
2022-09-17T02:33:36.713Z,98.75
2022-09-17T02:34:36.683Z,98.55
2022-09-17T02:35:36.680Z,98.60
2022-09-17T02:36:36.670Z,98.60
2022-09-17T02:37:36.664Z,98.80
2022-09-17T02:38:36.679Z,98.86
2022-09-17T02:39:36.646Z,99.57
2022-09-17T02:40:36.694Z,99.27
2022-09-17T02:41:36.631Z,99.06
2022-09-17T02:42:36.627Z,99.27
2022-09-17T02:43:36.645Z,99.06
2022-09-17T02:44:36.612Z,99.27
2022-09-17T02:45:36.605Z,99.47
2022-09-17T02:46:36.604Z,99.16
2022-09-17T02:47:36.670Z,98.86
2022-09-17T02:48:36.608Z,99.16
2022-09-17T02:49:36.572Z,98.96
2022-09-17T02:50:36.562Z,98.39
2022-09-17T02:51:36.558Z,99.01
2022-09-17T02:52:36.547Z,99.52
2022-09-17T02:53:36.573Z,99.27
2022-09-17T02:54:36.531Z,99.06
2022-09-17T02:55:36.529Z,98.96
2022-09-17T02:56:36.521Z,98.55
2022-09-17T02:57:36.547Z,99.06
2022-09-17T02:58:36.517Z,98.35
2022-09-17T02:59:36.499Z,98.29
2022-09-17T03:00:36.549Z,98.60
2022-09-17T03:01:36.517Z,99.16
2022-09-17T03:02:36.516Z,98.35
2022-09-17T03:03:36.555Z,99.27
2022-09-17T03:04:36.468Z,99.16
2022-09-17T03:05:36.462Z,99.06
2022-09-17T03:06:36.458Z,98.96
2022-09-17T03:07:36.451Z,99.37
2022-09-17T03:08:36.469Z,99.27
2022-09-17T03:09:36.427Z,99.06
2022-09-17T03:10:36.422Z,98.65
2022-09-17T03:11:36.414Z,99.16
2022-09-17T03:12:36.409Z,99.37
2022-09-17T03:13:36.421Z,99.27
2022-09-17T03:14:36.393Z,99.37
2022-09-17T03:15:36.381Z,99.06
2022-09-17T03:16:36.440Z,99.16
2022-09-17T03:17:36.359Z,99.22
2022-09-17T03:18:36.394Z,99.27
2022-09-17T03:19:36.430Z,98.86
2022-09-17T03:20:36.343Z,99.16
2022-09-17T03:21:36.336Z,99.88
2022-09-17T03:22:36.336Z,99.37
2022-09-17T03:23:36.593Z,99.68
2022-09-17T03:24:36.311Z,99.27
2022-09-17T03:25:36.303Z,99.06
2022-09-17T03:26:36.299Z,99.57
2022-09-17T03:27:36.291Z,99.57
2022-09-17T03:28:36.311Z,99.47
2022-09-17T03:29:36.288Z,99.27
2022-09-17T03:30:36.277Z,99.27
2022-09-17T03:31:36.327Z,99.99
2022-09-17T03:32:36.257Z,99.88
2022-09-17T03:33:36.267Z,99.99
2022-09-17T03:34:36.241Z,99.99
2022-09-17T03:35:36.300Z,99.99
2022-09-17T03:36:37.220Z,99.99
2022-09-17T03:37:36.213Z,99.99
2022-09-17T03:38:36.235Z,99.99
2022-09-17T03:39:36.199Z,99.88
2022-09-17T03:40:36.262Z,99.99
2022-09-17T03:41:36.184Z,99.99
2022-09-17T03:42:36.181Z,99.99
2022-09-17T03:43:36.195Z,99.99
2022-09-17T03:44:36.163Z,99.99
2022-09-17T03:45:36.154Z,99.99
2022-09-17T03:46:36.271Z,99.99
2022-09-17T03:47:36.145Z,99.73
2022-09-17T03:48:36.161Z,99.84
2022-09-17T03:49:36.136Z,99.32
2022-09-17T03:50:36.124Z,99.52
2022-09-17T03:51:36.198Z,99.22
2022-09-17T03:52:36.108Z,99.02
2022-09-17T03:53:36.125Z,99.52
2022-09-17T03:54:36.093Z,99.43
2022-09-17T03:55:36.079Z,99.22
2022-09-17T03:56:36.074Z,99.02
2022-09-17T03:57:36.068Z,98.86
2022-09-17T03:58:36.085Z,99.22
2022-09-17T03:59:36.054Z,99.06
2022-09-17T04:00:36.046Z,99.63
2022-09-17T04:01:36.128Z,99.63
2022-09-17T04:02:36.177Z,99.43
2022-09-17T04:03:36.047Z,99.22
2022-09-17T04:04:36.013Z,99.32
2022-09-17T04:05:36.017Z,99.52
2022-09-17T04:06:36.001Z,99.22
2022-09-17T04:07:36.071Z,98.91
2022-09-17T04:08:36.013Z,99.11
2022-09-17T04:09:35.976Z,99.02
2022-09-17T04:10:35.971Z,99.02
2022-09-17T04:11:35.959Z,99.32
2022-09-17T04:12:35.952Z,99.22
2022-09-17T04:13:35.975Z,99.02
2022-09-17T04:14:35.936Z,99.11
2022-09-17T04:15:35.928Z,99.02
2022-09-17T04:16:36.011Z,99.11
2022-09-17T04:17:35.908Z,98.91
2022-09-17T04:18:35.929Z,99.32
2022-09-17T04:19:35.897Z,99.22
2022-09-17T04:20:35.885Z,98.24
2022-09-17T04:21:35.884Z,98.65
2022-09-17T04:22:35.876Z,98.50
2022-09-17T04:23:35.968Z,97.58
2022-09-17T04:24:35.857Z,97.28
2022-09-17T04:25:35.853Z,97.28
2022-09-17T04:26:35.843Z,97.63
2022-09-17T04:27:35.831Z,98.10
2022-09-17T04:28:35.851Z,97.89
2022-09-17T04:29:35.826Z,97.89
2022-09-17T04:30:35.807Z,98.20
2022-09-17T04:31:35.857Z,98.40
2022-09-17T04:32:35.800Z,98.20
2022-09-17T04:33:35.817Z,97.89
2022-09-17T04:34:35.782Z,98.10
2022-09-17T04:35:35.779Z,97.58
2022-09-17T04:36:35.765Z,97.99
2022-09-17T04:37:35.763Z,97.49
2022-09-17T04:38:35.776Z,97.95
2022-09-17T04:39:35.824Z,97.58
2022-09-17T04:40:35.822Z,97.64
2022-09-17T04:41:35.732Z,96.97
2022-09-17T04:42:35.721Z,97.28
2022-09-17T04:43:35.738Z,97.58
2022-09-17T04:44:35.710Z,97.28
2022-09-17T04:45:35.693Z,97.54
2022-09-17T04:46:35.750Z,97.44
2022-09-17T04:47:35.681Z,96.92
2022-09-17T04:48:35.700Z,97.49
2022-09-17T04:49:35.668Z,96.46
2022-09-17T04:50:35.657Z,97.08
2022-09-17T04:51:35.652Z,96.87
2022-09-17T04:52:35.643Z,96.42
2022-09-17T04:53:35.667Z,96.46
2022-09-17T04:54:35.630Z,96.67
2022-09-17T04:55:35.701Z,96.87
2022-09-17T04:56:35.611Z,96.97
2022-09-17T04:57:35.608Z,96.56
2022-09-17T04:58:35.621Z,96.87
2022-09-17T04:59:35.587Z,96.77
2022-09-17T05:00:35.712Z,96.87
2022-09-17T05:01:35.580Z,96.77
2022-09-17T05:02:35.564Z,96.46
2022-09-17T05:03:35.589Z,96.77
2022-09-17T05:04:35.551Z,96.87
2022-09-17T05:05:35.545Z,96.15
2022-09-17T05:06:35.541Z,96.15
2022-09-17T05:07:35.538Z,96.05
2022-09-17T05:08:35.553Z,95.64
2022-09-17T05:09:35.515Z,96.15
2022-09-17T05:10:35.506Z,95.80
2022-09-17T05:11:35.583Z,96.11
2022-09-17T05:12:35.499Z,96.36
2022-09-17T05:13:35.512Z,96.15
2022-09-17T05:14:35.476Z,96.15
2022-09-17T05:15:35.469Z,96.15
2022-09-17T05:16:35.489Z,95.23
2022-09-17T05:17:35.456Z,95.54
2022-09-17T05:18:35.465Z,95.80
2022-09-17T05:19:36.438Z,94.62
2022-09-17T05:20:35.431Z,94.73
2022-09-17T05:21:35.421Z,95.64
2022-09-17T05:22:35.424Z,95.85
2022-09-17T05:23:35.432Z,94.93
2022-09-17T05:24:35.393Z,95.64
2022-09-17T05:25:35.395Z,95.09
2022-09-17T05:26:35.380Z,95.50
2022-09-17T05:27:35.452Z,94.98
2022-09-17T05:28:35.402Z,95.64
2022-09-17T05:29:35.364Z,95.60
2022-09-17T05:30:35.356Z,96.01
2022-09-17T05:31:35.433Z,96.11
2022-09-17T05:32:35.340Z,95.80
2022-09-17T05:33:35.358Z,95.90
2022-09-17T05:34:35.332Z,95.60
2022-09-17T05:35:35.322Z,94.58
2022-09-17T05:36:35.307Z,94.89
2022-09-17T05:37:35.303Z,94.78
2022-09-17T05:38:35.321Z,94.78
2022-09-17T05:39:35.288Z,94.07
2022-09-17T05:40:35.377Z,94.27
2022-09-17T05:41:35.271Z,93.45
2022-09-17T05:42:35.267Z,94.48
2022-09-17T05:43:35.360Z,93.96
2022-09-17T05:44:35.236Z,93.86
2022-09-17T05:45:36.238Z,93.86
2022-09-17T05:46:35.318Z,93.71
2022-09-17T05:47:35.230Z,93.55
2022-09-17T05:48:35.258Z,93.15
2022-09-17T05:49:35.216Z,93.00
2022-09-17T05:50:35.214Z,93.71
2022-09-17T05:51:35.200Z,93.41
2022-09-17T05:52:35.187Z,93.21
2022-09-17T05:53:35.187Z,92.65
2022-09-17T05:54:35.211Z,93.16
2022-09-17T05:55:35.167Z,93.06
2022-09-17T05:56:35.155Z,92.04
2022-09-17T05:57:35.147Z,91.88
2022-09-17T05:58:35.168Z,92.45
2022-09-17T05:59:35.214Z,92.04
2022-09-17T06:00:35.129Z,92.24
2022-09-17T06:01:35.147Z,92.19
2022-09-17T06:02:35.169Z,91.22
2022-09-17T06:03:35.125Z,90.81
2022-09-17T06:04:35.306Z,91.12
2022-09-17T06:05:35.086Z,92.04
2022-09-17T06:06:35.086Z,92.04
2022-09-17T06:07:35.067Z,92.14
2022-09-17T06:08:35.091Z,91.12
2022-09-17T06:09:35.058Z,91.08
2022-09-17T06:10:35.045Z,90.94
2022-09-17T06:11:35.039Z,90.53
2022-09-17T06:12:35.036Z,89.42
2022-09-17T06:13:35.054Z,88.46
2022-09-17T06:14:35.012Z,87.61
2022-09-17T06:15:35.083Z,87.00
2022-09-17T06:16:35.064Z,87.35
2022-09-17T06:17:34.998Z,87.79
2022-09-17T06:18:35.010Z,88.31
2022-09-17T06:19:34.973Z,89.06
2022-09-17T06:20:34.974Z,89.51
2022-09-17T06:21:34.962Z,88.49
2022-09-17T06:22:34.954Z,90.06
2022-09-17T06:23:34.967Z,89.75
2022-09-17T06:24:34.933Z,90.47
2022-09-17T06:25:34.928Z,90.47
2022-09-17T06:26:34.923Z,90.47
2022-09-17T06:27:34.912Z,90.81
2022-09-17T06:28:39.165Z,90.81
2022-09-17T06:29:36.902Z,89.79
2022-09-17T06:30:34.894Z,90.20
2022-09-17T06:31:35.035Z,89.49
2022-09-17T06:32:34.874Z,90.00
2022-09-17T06:33:34.893Z,89.96
2022-09-17T06:34:34.859Z,90.00
2022-09-17T06:35:34.847Z,90.06
2022-09-17T06:36:34.839Z,90.16
2022-09-17T06:37:34.835Z,88.98
2022-09-17T06:38:34.852Z,85.76
2022-09-17T06:39:34.815Z,82.56
2022-09-17T06:40:34.862Z,80.26
2022-09-17T06:41:34.806Z,80.60
2022-09-17T06:42:34.792Z,81.15
2022-09-17T06:43:34.814Z,82.20
2022-09-17T06:44:34.783Z,81.53
2022-09-17T06:45:34.772Z,82.75
2022-09-17T06:46:34.857Z,82.45
2022-09-17T06:47:34.838Z,83.15
2022-09-17T06:48:34.774Z,82.95
2022-09-17T06:49:34.756Z,82.45
2022-09-17T06:50:37.273Z,83.73
2022-09-17T06:51:34.729Z,84.23
2022-09-17T06:52:34.722Z,81.12
2022-09-17T06:53:34.741Z,81.43
2022-09-17T06:54:34.705Z,82.45
2022-09-17T06:55:34.695Z,83.84
2022-09-17T06:56:34.688Z,83.74
2022-09-17T06:57:34.678Z,84.45
2022-09-17T06:58:34.701Z,85.17
2022-09-17T06:59:34.675Z,85.41
2022-09-17T07:00:34.748Z,85.72
2022-09-17T07:01:34.727Z,85.45
2022-09-17T07:02:34.642Z,86.27
2022-09-17T07:03:34.741Z,86.22
2022-09-17T07:04:34.620Z,85.94
2022-09-17T07:05:34.625Z,82.86
2022-09-17T07:06:34.619Z,78.02
2022-09-17T07:07:34.621Z,77.47
2022-09-17T07:08:34.655Z,74.63
2022-09-17T07:09:34.608Z,73.25
2022-09-17T07:10:34.572Z,72.31
2022-09-17T07:11:34.574Z,71.77
2022-09-17T07:12:34.567Z,72.17
2022-09-17T07:13:34.557Z,68.65
2022-09-17T07:14:34.573Z,67.14
2022-09-17T07:15:34.536Z,65.44
2022-09-17T07:16:34.543Z,65.14
2022-09-17T07:17:34.522Z,63.95
2022-09-17T07:18:34.515Z,63.31
2022-09-17T07:19:34.611Z,62.28
2022-09-17T07:20:34.501Z,62.08
2022-09-17T07:21:34.490Z,61.18
2022-09-17T07:22:34.488Z,59.92
2022-09-17T07:23:34.483Z,58.42
2022-09-17T07:24:34.494Z,59.55
2022-09-17T07:25:34.473Z,60.82
2022-09-17T07:26:34.460Z,64.36
2022-09-17T07:27:34.459Z,66.96
2022-09-17T07:28:34.445Z,70.96
2022-09-17T07:29:34.457Z,72.99
2022-09-17T07:30:34.427Z,74.88
2022-09-17T07:31:34.508Z,75.49
2022-09-17T07:32:34.410Z,75.04
2022-09-17T07:33:34.409Z,72.92
2022-09-17T07:34:34.416Z,72.31
2022-09-17T07:35:34.461Z,69.75
2022-09-17T07:36:34.382Z,69.08
2022-09-17T07:37:34.380Z,66.80
2022-09-17T07:38:34.360Z,65.39
2022-09-17T07:39:34.382Z,63.59
2022-09-17T07:40:34.465Z,62.89
2022-09-17T07:41:34.343Z,63.32
2022-09-17T07:42:34.338Z,64.50
2022-09-17T07:43:34.328Z,63.12
2022-09-17T07:44:34.349Z,63.05
2022-09-17T07:45:34.314Z,62.99
2022-09-17T07:46:34.343Z,61.70
2022-09-17T07:47:34.304Z,60.33
2022-09-17T07:48:34.289Z,60.77
2022-09-17T07:49:34.314Z,62.13
2022-09-17T07:50:34.278Z,63.17
2022-09-17T07:51:34.347Z,62.69
2022-09-17T07:52:34.264Z,63.15
2022-09-17T07:53:34.256Z,66.13
2022-09-17T07:54:34.268Z,66.56
2022-09-17T07:55:34.241Z,67.94
2022-09-17T07:56:34.228Z,66.60
2022-09-17T07:57:34.227Z,67.57
2022-09-17T07:58:34.216Z,68.91
2022-09-17T07:59:34.236Z,66.30
2022-09-17T08:00:34.201Z,64.20
2022-09-17T08:01:34.244Z,64.19
2022-09-17T08:02:34.267Z,64.23
2022-09-17T08:03:34.176Z,63.39
2022-09-17T08:04:34.196Z,64.53
2022-09-17T08:05:34.169Z,63.92
2022-09-17T08:06:34.160Z,64.92
2022-09-17T08:07:34.223Z,68.77
2022-09-17T08:08:34.147Z,65.70
2022-09-17T08:09:34.152Z,62.98
2022-09-17T08:10:34.124Z,65.46
2022-09-17T08:12:36.113Z,65.72
2022-09-17T08:13:34.103Z,68.91
2022-09-17T08:14:34.125Z,69.35
2022-09-17T08:15:34.092Z,70.86
2022-09-17T08:16:34.169Z,70.76
2022-09-17T08:17:34.078Z,70.96
2022-09-17T08:18:34.065Z,69.68
2022-09-17T08:19:34.078Z,71.26
2022-09-17T08:20:34.054Z,71.97
2022-09-17T08:21:34.047Z,72.51
2022-09-17T08:22:34.032Z,72.58
2022-09-17T08:23:34.106Z,72.78
2022-09-17T08:24:34.051Z,73.12
2022-09-17T08:25:34.010Z,72.38
2022-09-17T08:26:34.010Z,72.68
2022-09-17T08:27:34.003Z,72.08
2022-09-17T08:28:33.992Z,71.16
2022-09-17T08:29:35.378Z,72.52
2022-09-17T08:30:34.977Z,70.25
2022-09-17T08:31:34.010Z,67.10
2022-09-17T08:32:33.956Z,66.39
2022-09-17T08:33:33.973Z,63.71
2022-09-17T08:34:33.944Z,62.98
2022-09-17T08:35:33.956Z,62.49
2022-09-17T08:36:33.927Z,61.25
2022-09-17T08:37:33.919Z,61.52
2022-09-17T08:38:37.920Z,61.49
2022-09-17T08:39:34.984Z,61.18
2022-09-17T08:40:33.971Z,62.69
2022-09-17T08:41:33.893Z,61.18
2022-09-17T08:42:33.882Z,61.60
2022-09-17T08:43:33.871Z,64.41
2022-09-17T08:44:33.869Z,65.54
2022-09-17T08:45:33.883Z,66.99
2022-09-17T08:46:33.908Z,65.55
2022-09-17T08:47:33.840Z,63.98
2022-09-17T08:48:33.830Z,63.48
2022-09-17T08:49:33.827Z,61.41
2022-09-17T08:50:33.848Z,59.17
2022-09-17T08:51:33.821Z,58.49
2022-09-17T08:52:33.810Z,56.93
2022-09-17T08:53:33.797Z,56.74
2022-09-17T08:54:34.411Z,56.00
2022-09-17T08:55:33.881Z,57.18
2022-09-17T08:56:33.775Z,59.30
2022-09-17T08:57:33.765Z,61.69
2022-09-17T08:58:33.769Z,64.61
2022-09-17T08:59:33.753Z,66.28
2022-09-17T09:00:33.774Z,66.64
2022-09-17T09:01:33.775Z,68.13
2022-09-17T09:02:33.855Z,68.36
2022-09-17T09:03:33.726Z,69.17
2022-09-17T09:04:33.723Z,69.51
2022-09-17T09:05:33.737Z,71.06
2022-09-17T09:06:33.706Z,71.26
2022-09-17T09:07:33.697Z,71.73
2022-09-17T09:08:33.686Z,71.33
2022-09-17T09:09:33.684Z,71.03
2022-09-17T09:10:33.698Z,71.30
2022-09-17T09:11:33.748Z,71.30
2022-09-17T09:12:33.656Z,70.93
2022-09-17T09:13:33.650Z,72.24
2022-09-17T09:14:33.645Z,71.60
2022-09-17T09:15:33.667Z,71.50
2022-09-17T09:16:33.688Z,69.61
2022-09-17T09:17:33.627Z,69.98
2022-09-17T09:18:33.617Z,69.27
2022-09-17T09:19:33.610Z,69.38
2022-09-17T09:20:33.624Z,69.18
2022-09-17T09:21:33.590Z,68.67
2022-09-17T09:22:33.586Z,67.55
2022-09-17T09:23:33.581Z,68.06
2022-09-17T09:24:33.570Z,67.63
2022-09-17T09:25:33.588Z,68.13
2022-09-17T09:26:33.560Z,69.78
2022-09-17T09:27:33.624Z,69.92
2022-09-17T09:28:33.539Z,70.65
2022-09-17T09:29:33.533Z,72.52
2022-09-17T09:30:33.556Z,72.14
2022-09-17T09:31:33.573Z,72.48
2022-09-17T09:32:33.508Z,71.80
2022-09-17T09:33:33.498Z,72.52
2022-09-17T09:34:33.488Z,70.29
2022-09-17T09:35:33.509Z,68.67
2022-09-17T09:36:33.478Z,66.49
2022-09-17T09:37:33.467Z,65.49
2022-09-17T09:38:33.462Z,64.25
2022-09-17T09:39:40.198Z,65.50
2022-09-17T09:40:35.554Z,65.19
2022-09-17T09:41:33.437Z,63.76
2022-09-17T09:42:33.436Z,64.13
2022-09-17T09:43:59.620Z,64.13
2022-09-17T09:44:35.417Z,62.42
2022-09-17T09:45:33.445Z,60.71
2022-09-17T09:46:33.433Z,60.91
2022-09-17T09:47:33.398Z,60.91
2022-09-17T09:48:33.390Z,60.21
2022-09-17T09:49:33.385Z,61.17
2022-09-17T09:50:54.684Z,63.34
2022-09-17T09:51:35.391Z,63.27
2022-09-17T09:52:33.360Z,63.30
2022-09-17T09:53:33.349Z,62.85
2022-09-17T09:54:34.043Z,66.22
2022-09-17T09:55:33.335Z,68.95
2022-09-17T09:56:33.358Z,70.42
2022-09-17T09:57:33.321Z,71.37
2022-09-17T09:58:33.317Z,72.24
2022-09-17T09:59:33.475Z,74.30
2022-09-17T10:00:33.303Z,75.31
2022-09-17T10:01:33.353Z,72.17
2022-09-17T10:02:33.390Z,72.81
2022-09-17T10:03:33.287Z,73.02
2022-09-17T10:04:33.273Z,71.06
2022-09-17T10:05:33.266Z,67.99
2022-09-17T10:06:33.278Z,69.78
2022-09-17T10:07:33.252Z,66.01
2022-09-17T10:08:33.247Z,66.61
2022-09-17T10:09:33.238Z,67.43
2022-09-17T10:10:33.228Z,65.26
2022-09-17T10:11:33.247Z,65.84
2022-09-17T10:12:33.215Z,65.73
2022-09-17T10:13:33.201Z,66.01
2022-09-17T10:14:33.195Z,63.89
2022-09-17T10:15:33.269Z,64.06
2022-09-17T10:16:33.291Z,62.87
2022-09-17T10:17:33.178Z,64.12
2022-09-17T10:18:33.166Z,63.51
2022-09-17T10:19:33.156Z,63.68
2022-09-17T10:20:33.149Z,62.98
2022-09-17T10:21:33.169Z,61.76
2022-09-17T10:22:33.132Z,61.62
2022-09-17T10:23:33.126Z,61.59
2022-09-17T10:24:33.117Z,61.90
2022-09-17T10:25:33.108Z,61.69
2022-09-17T10:26:33.127Z,61.76
2022-09-17T10:27:33.095Z,63.25
2022-09-17T10:28:33.088Z,63.35
2022-09-17T10:29:33.080Z,62.74
2022-09-17T10:30:33.075Z,63.55
2022-09-17T10:31:33.206Z,62.82
2022-09-17T10:32:33.059Z,63.09
2022-09-17T10:33:33.051Z,63.79
2022-09-17T10:34:33.042Z,61.55
2022-09-17T10:35:33.038Z,62.73
2022-09-17T10:36:37.282Z,61.69
2022-09-17T10:37:34.020Z,61.69
2022-09-17T10:38:33.014Z,63.10
2022-09-17T10:39:33.007Z,61.59
2022-09-17T10:40:33.055Z,60.75
2022-09-17T10:41:32.992Z,58.84
2022-09-17T10:42:33.020Z,58.34
2022-09-17T10:43:32.979Z,58.74
2022-09-17T10:44:32.967Z,59.55
2022-09-17T10:45:32.956Z,59.67
2022-09-17T10:46:32.982Z,61.04
2022-09-17T10:47:33.047Z,59.40
2022-09-17T10:48:32.936Z,59.07
2022-09-17T10:49:32.932Z,58.16
2022-09-17T10:50:32.924Z,57.65
2022-09-17T10:51:32.916Z,58.47
2022-09-17T10:52:32.928Z,57.18
2022-09-17T10:53:32.893Z,58.87
2022-09-17T10:54:32.885Z,60.09
2022-09-17T10:55:32.883Z,61.98
2022-09-17T10:56:32.874Z,59.21
2022-09-17T10:57:32.889Z,60.12
2022-09-17T10:58:32.855Z,60.82
2022-09-17T10:59:32.850Z,62.54
2022-09-17T11:00:32.838Z,63.38
2022-09-17T11:01:32.905Z,65.00
2022-09-17T11:02:33.010Z,63.51
2022-09-17T11:03:32.895Z,64.59
2022-09-17T11:04:32.807Z,64.39
2022-09-17T11:05:32.799Z,61.73
2022-09-17T11:06:32.794Z,61.88
2022-09-17T11:07:32.818Z,61.57
2022-09-17T11:08:32.884Z,60.61
2022-09-17T11:09:32.768Z,59.37
2022-09-17T11:10:32.761Z,58.44
2022-09-17T11:11:32.756Z,59.04
2022-09-17T11:12:32.774Z,57.45
2022-09-17T11:13:32.741Z,57.96
2022-09-17T11:14:32.732Z,57.65
2022-09-17T11:15:32.728Z,58.16
2022-09-17T11:16:32.786Z,56.95
2022-09-17T11:17:32.703Z,56.15
2022-09-17T11:18:32.721Z,57.86
2022-09-17T11:19:32.769Z,55.84
2022-09-17T11:20:32.684Z,55.82
2022-09-17T11:21:32.872Z,56.35
2022-09-17T11:22:32.671Z,57.32
2022-09-17T11:23:32.684Z,57.93
2022-09-17T11:24:32.647Z,58.74
2022-09-17T11:25:32.642Z,57.90
2022-09-17T11:26:32.634Z,58.61
2022-09-17T11:27:32.630Z,57.28
2022-09-17T11:28:33.104Z,57.07
2022-09-17T11:29:32.610Z,57.10
2022-09-17T11:30:32.603Z,57.60
2022-09-17T11:31:32.632Z,57.15
2022-09-17T11:32:32.587Z,57.89
2022-09-17T11:33:32.608Z,59.42
2022-09-17T11:34:32.576Z,61.71
2022-09-17T11:35:32.638Z,63.45
2022-09-17T11:36:32.557Z,63.28
2022-09-17T11:37:32.558Z,63.61
2022-09-17T11:38:32.568Z,64.12
2022-09-17T11:39:32.535Z,65.00
2022-09-17T11:40:32.579Z,64.39
2022-09-17T11:41:32.516Z,63.89
2022-09-17T11:42:32.506Z,63.48
2022-09-17T11:43:32.526Z,65.98
2022-09-17T11:44:32.497Z,67.19
2022-09-17T11:45:32.487Z,63.38
2022-09-17T11:46:32.517Z,65.26
2022-09-17T11:47:32.473Z,67.52
2022-09-17T11:48:32.491Z,68.77
2022-09-17T11:49:32.455Z,71.03
2022-09-17T11:50:32.447Z,72.58
2022-09-17T11:51:32.519Z,72.89
2022-09-17T11:52:32.431Z,72.28
2022-09-17T11:53:32.452Z,73.97
2022-09-17T11:54:32.417Z,70.69
2022-09-17T11:55:32.411Z,71.06
2022-09-17T11:56:32.404Z,68.29
2022-09-17T11:57:32.395Z,71.80
2022-09-17T11:58:32.414Z,73.09
2022-09-17T11:59:32.381Z,68.43
2022-09-17T12:00:32.375Z,72.17
2022-09-17T12:01:32.426Z,68.84
2022-09-17T12:02:32.406Z,68.16
2022-09-17T12:03:32.378Z,67.85
2022-09-17T12:04:32.326Z,68.66
2022-09-17T12:05:33.334Z,70.15
2022-09-17T12:06:32.326Z,70.76
2022-09-17T12:07:32.394Z,65.59
2022-09-17T12:08:32.334Z,68.36
2022-09-17T12:09:32.308Z,69.07
2022-09-17T12:10:32.299Z,69.17
2022-09-17T12:11:32.295Z,68.13
2022-09-17T12:12:48.866Z,67.62
2022-09-17T12:13:34.297Z,68.19
2022-09-17T12:14:32.266Z,67.79
2022-09-17T12:15:32.256Z,66.58
2022-09-17T12:16:32.359Z,66.24
2022-09-17T12:17:32.239Z,66.72
2022-09-17T12:18:33.500Z,64.56
2022-09-17T12:19:33.224Z,65.44
2022-09-17T12:20:32.220Z,62.85
2022-09-17T12:21:32.210Z,60.45
2022-09-17T12:22:32.204Z,61.46
2022-09-17T12:23:32.294Z,61.94
2022-09-17T12:24:32.190Z,61.03
2022-09-17T12:25:32.181Z,65.00
2022-09-17T12:26:32.170Z,68.37
2022-09-17T12:27:32.168Z,68.53
2022-09-17T12:28:32.188Z,67.82
2022-09-17T12:29:32.154Z,63.44
2022-09-17T12:30:32.137Z,63.37
2022-09-17T12:31:32.221Z,65.19
2022-09-17T12:32:32.124Z,65.50
2022-09-17T12:33:32.141Z,65.67
2022-09-17T12:34:32.110Z,65.13
2022-09-17T12:35:59.805Z,65.13
2022-09-17T12:36:34.101Z,64.12
2022-09-17T12:37:32.087Z,63.01
2022-09-17T12:38:32.106Z,64.02
2022-09-17T12:39:32.153Z,64.22
2022-09-17T12:40:32.116Z,63.21
2022-09-17T12:41:32.056Z,62.81
2022-09-17T12:42:32.050Z,63.28
2022-09-17T12:43:32.068Z,63.18
2022-09-17T12:44:32.034Z,63.28
2022-09-17T12:45:32.029Z,63.55
2022-09-17T12:46:32.045Z,62.62
2022-09-17T12:47:32.013Z,62.92
2022-09-17T12:48:32.033Z,60.69
2022-09-17T12:49:31.999Z,60.09
2022-09-17T12:50:31.990Z,60.09
2022-09-17T12:51:31.988Z,59.48
2022-09-17T12:52:31.975Z,59.78
2022-09-17T12:53:31.993Z,59.15